sensor_id;sensor_type;location;lat;lon;timestamp;P1;durP1;ratioP1;P2;durP2;ratioP2
58362;SDS011;54977;51.510;7.522;2022-09-09T00:03:02;5.82;;;1.52;;
58362;SDS011;54977;51.510;7.522;2022-09-09T00:13:18;5.78;;;1.75;;
58362;SDS011;54977;51.510;7.522;2022-09-09T00:18:28;4.35;;;1.33;;
58362;SDS011;54977;51.510;7.522;2022-09-09T00:23:37;8.10;;;2.20;;
58362;SDS011;54977;51.510;7.522;2022-09-09T00:28:41;8.27;;;2.00;;
58362;SDS011;54977;51.510;7.522;2022-09-09T00:33:51;3.78;;;1.90;;
58362;SDS011;54977;51.510;7.522;2022-09-09T00:38:56;3.20;;;1.33;;
58362;SDS011;54977;51.510;7.522;2022-09-09T00:44:01;4.93;;;1.67;;
58362;SDS011;54977;51.510;7.522;2022-09-09T00:49:18;4.10;;;1.67;;
58362;SDS011;54977;51.510;7.522;2022-09-09T00:54:32;5.35;;;1.67;;
58362;SDS011;54977;51.510;7.522;2022-09-09T00:59:45;5.00;;;1.92;;
58362;SDS011;54977;51.510;7.522;2022-09-09T01:04:50;4.70;;;1.77;;
58362;SDS011;54977;51.510;7.522;2022-09-09T01:09:52;6.32;;;2.00;;
58362;SDS011;54977;51.510;7.522;2022-09-09T01:15:00;7.28;;;2.30;;
58362;SDS011;54977;51.510;7.522;2022-09-09T01:20:12;5.03;;;2.60;;
58362;SDS011;54977;51.510;7.522;2022-09-09T01:25:29;6.68;;;2.88;;
58362;SDS011;54977;51.510;7.522;2022-09-09T01:31:04;6.00;;;3.60;;
58362;SDS011;54977;51.510;7.522;2022-09-09T01:36:09;8.88;;;3.38;;
58362;SDS011;54977;51.510;7.522;2022-09-09T01:41:17;13.90;;;3.95;;
58362;SDS011;54977;51.510;7.522;2022-09-09T01:46:19;6.53;;;3.60;;
58362;SDS011;54977;51.510;7.522;2022-09-09T01:51:23;9.57;;;4.03;;
58362;SDS011;54977;51.510;7.522;2022-09-09T01:56:30;12.85;;;4.45;;
58362;SDS011;54977;51.510;7.522;2022-09-09T02:01:46;10.32;;;3.72;;
58362;SDS011;54977;51.510;7.522;2022-09-09T02:06:56;8.00;;;3.40;;
58362;SDS011;54977;51.510;7.522;2022-09-09T02:12:01;6.28;;;3.55;;
58362;SDS011;54977;51.510;7.522;2022-09-09T02:17:10;10.30;;;3.03;;
58362;SDS011;54977;51.510;7.522;2022-09-09T02:22:14;10.35;;;3.10;;
58362;SDS011;54977;51.510;7.522;2022-09-09T02:27:20;9.35;;;3.30;;
58362;SDS011;54977;51.510;7.522;2022-09-09T02:32:23;9.30;;;3.10;;
58362;SDS011;54977;51.510;7.522;2022-09-09T02:37:26;14.68;;;3.65;;
58362;SDS011;54977;51.510;7.522;2022-09-09T02:42:39;11.30;;;2.95;;
58362;SDS011;54977;51.510;7.522;2022-09-09T02:47:42;12.60;;;3.10;;
58362;SDS011;54977;51.510;7.522;2022-09-09T02:52:52;9.57;;;2.63;;
58362;SDS011;54977;51.510;7.522;2022-09-09T02:58:04;6.65;;;2.58;;
58362;SDS011;54977;51.510;7.522;2022-09-09T03:03:09;7.25;;;2.90;;
58362;SDS011;54977;51.510;7.522;2022-09-09T03:08:11;8.82;;;3.20;;
58362;SDS011;54977;51.510;7.522;2022-09-09T03:13:15;9.60;;;2.95;;
58362;SDS011;54977;51.510;7.522;2022-09-09T03:18:19;5.85;;;2.58;;
58362;SDS011;54977;51.510;7.522;2022-09-09T03:23:21;7.82;;;2.47;;
58362;SDS011;54977;51.510;7.522;2022-09-09T03:28:24;7.47;;;2.28;;
58362;SDS011;54977;51.510;7.522;2022-09-09T03:33:31;6.65;;;2.45;;
58362;SDS011;54977;51.510;7.522;2022-09-09T03:38:34;9.20;;;2.75;;
58362;SDS011;54977;51.510;7.522;2022-09-09T03:43:37;6.05;;;2.42;;
58362;SDS011;54977;51.510;7.522;2022-09-09T03:48:39;6.95;;;2.72;;
58362;SDS011;54977;51.510;7.522;2022-09-09T03:53:41;17.08;;;2.40;;
58362;SDS011;54977;51.510;7.522;2022-09-09T03:58:45;11.07;;;2.72;;
58362;SDS011;54977;51.510;7.522;2022-09-09T04:03:46;4.35;;;2.38;;
58362;SDS011;54977;51.510;7.522;2022-09-09T04:08:48;10.68;;;2.92;;
58362;SDS011;54977;51.510;7.522;2022-09-09T04:13:53;6.00;;;2.22;;
58362;SDS011;54977;51.510;7.522;2022-09-09T04:18:55;6.75;;;2.67;;
58362;SDS011;54977;51.510;7.522;2022-09-09T04:23:58;9.88;;;2.70;;
58362;SDS011;54977;51.510;7.522;2022-09-09T04:29:01;10.15;;;3.25;;
58362;SDS011;54977;51.510;7.522;2022-09-09T04:34:03;9.02;;;2.80;;
58362;SDS011;54977;51.510;7.522;2022-09-09T04:39:05;11.25;;;3.08;;
58362;SDS011;54977;51.510;7.522;2022-09-09T04:44:08;7.53;;;2.63;;
58362;SDS011;54977;51.510;7.522;2022-09-09T04:49:11;15.07;;;3.50;;
58362;SDS011;54977;51.510;7.522;2022-09-09T04:54:12;7.20;;;2.88;;
58362;SDS011;54977;51.510;7.522;2022-09-09T04:59:16;10.65;;;2.95;;
58362;SDS011;54977;51.510;7.522;2022-09-09T05:04:17;8.35;;;2.97;;
58362;SDS011;54977;51.510;7.522;2022-09-09T05:09:19;11.00;;;2.72;;
58362;SDS011;54977;51.510;7.522;2022-09-09T05:14:22;6.90;;;2.90;;
58362;SDS011;54977;51.510;7.522;2022-09-09T05:19:24;8.68;;;2.72;;
58362;SDS011;54977;51.510;7.522;2022-09-09T05:24:26;9.15;;;2.80;;
58362;SDS011;54977;51.510;7.522;2022-09-09T05:29:29;9.55;;;3.10;;
58362;SDS011;54977;51.510;7.522;2022-09-09T05:34:33;6.38;;;2.75;;
58362;SDS011;54977;51.510;7.522;2022-09-09T05:39:35;10.98;;;2.90;;
58362;SDS011;54977;51.510;7.522;2022-09-09T05:44:39;8.40;;;2.65;;
58362;SDS011;54977;51.510;7.522;2022-09-09T05:49:42;9.60;;;2.88;;
58362;SDS011;54977;51.510;7.522;2022-09-09T05:54:43;9.98;;;2.90;;
58362;SDS011;54977;51.510;7.522;2022-09-09T05:59:47;5.68;;;3.05;;
58362;SDS011;54977;51.510;7.522;2022-09-09T06:04:49;7.05;;;2.95;;
58362;SDS011;54977;51.510;7.522;2022-09-09T06:09:51;7.45;;;2.50;;
58362;SDS011;54977;51.510;7.522;2022-09-09T06:14:54;10.07;;;2.20;;
58362;SDS011;54977;51.510;7.522;2022-09-09T06:19:56;9.32;;;2.40;;
58362;SDS011;54977;51.510;7.522;2022-09-09T06:24:58;14.35;;;2.40;;
58362;SDS011;54977;51.510;7.522;2022-09-09T06:30:02;11.60;;;2.30;;
58362;SDS011;54977;51.510;7.522;2022-09-09T06:35:05;5.60;;;1.75;;
58362;SDS011;54977;51.510;7.522;2022-09-09T06:40:08;7.18;;;2.22;;
58362;SDS011;54977;51.510;7.522;2022-09-09T06:45:12;12.48;;;2.30;;
58362;SDS011;54977;51.510;7.522;2022-09-09T06:50:14;11.85;;;1.63;;
58362;SDS011;54977;51.510;7.522;2022-09-09T06:55:16;7.35;;;1.70;;
58362;SDS011;54977;51.510;7.522;2022-09-09T07:00:20;10.88;;;1.90;;
58362;SDS011;54977;51.510;7.522;2022-09-09T07:05:22;5.35;;;1.55;;
58362;SDS011;54977;51.510;7.522;2022-09-09T07:10:26;5.40;;;1.30;;
58362;SDS011;54977;51.510;7.522;2022-09-09T07:15:29;9.20;;;1.77;;
58362;SDS011;54977;51.510;7.522;2022-09-09T07:20:31;5.75;;;2.00;;
58362;SDS011;54977;51.510;7.522;2022-09-09T07:25:33;6.50;;;1.40;;
58362;SDS011;54977;51.510;7.522;2022-09-09T07:30:36;6.88;;;1.25;;
58362;SDS011;54977;51.510;7.522;2022-09-09T07:35:38;6.13;;;1.20;;
58362;SDS011;54977;51.510;7.522;2022-09-09T07:40:39;6.32;;;1.38;;
58362;SDS011;54977;51.510;7.522;2022-09-09T07:45:43;4.15;;;1.30;;
58362;SDS011;54977;51.510;7.522;2022-09-09T07:50:44;5.53;;;1.00;;
58362;SDS011;54977;51.510;7.522;2022-09-09T07:55:46;3.83;;;0.98;;
58362;SDS011;54977;51.510;7.522;2022-09-09T08:00:49;5.82;;;1.20;;
58362;SDS011;54977;51.510;7.522;2022-09-09T08:05:51;3.67;;;0.80;;
58362;SDS011;54977;51.510;7.522;2022-09-09T08:10:53;4.38;;;0.82;;
58362;SDS011;54977;51.510;7.522;2022-09-09T08:16:08;6.65;;;1.10;;
58362;SDS011;54977;51.510;7.522;2022-09-09T08:21:12;4.80;;;0.90;;
58362;SDS011;54977;51.510;7.522;2022-09-09T08:26:17;5.25;;;0.90;;
58362;SDS011;54977;51.510;7.522;2022-09-09T08:31:24;2.47;;;0.63;;
58362;SDS011;54977;51.510;7.522;2022-09-09T08:36:28;6.03;;;1.02;;
58362;SDS011;54977;51.510;7.522;2022-09-09T08:47:15;6.65;;;1.05;;
58362;SDS011;54977;51.510;7.522;2022-09-09T08:52:25;8.15;;;1.10;;
58362;SDS011;54977;51.510;7.522;2022-09-09T08:57:30;8.23;;;1.10;;
58362;SDS011;54977;51.510;7.522;2022-09-09T09:02:37;5.03;;;1.10;;
58362;SDS011;54977;51.510;7.522;2022-09-09T09:07:47;7.93;;;0.98;;
58362;SDS011;54977;51.510;7.522;2022-09-09T09:12:57;7.18;;;1.40;;
58362;SDS011;54977;51.510;7.522;2022-09-09T09:18:01;4.22;;;1.33;;
58362;SDS011;54977;51.510;7.522;2022-09-09T09:23:03;6.45;;;1.70;;
58362;SDS011;54977;51.510;7.522;2022-09-09T09:28:10;7.32;;;1.25;;
58362;SDS011;54977;51.510;7.522;2022-09-09T09:33:20;5.27;;;1.20;;
58362;SDS011;54977;51.510;7.522;2022-09-09T09:38:25;3.35;;;0.88;;
58362;SDS011;54977;51.510;7.522;2022-09-09T09:43:29;8.30;;;0.90;;
58362;SDS011;54977;51.510;7.522;2022-09-09T09:48:33;7.03;;;0.80;;
58362;SDS011;54977;51.510;7.522;2022-09-09T09:53:35;4.20;;;0.80;;
58362;SDS011;54977;51.510;7.522;2022-09-09T09:58:47;6.25;;;0.90;;
58362;SDS011;54977;51.510;7.522;2022-09-09T10:03:53;5.05;;;0.70;;
58362;SDS011;54977;51.510;7.522;2022-09-09T10:08:58;7.90;;;1.10;;
58362;SDS011;54977;51.510;7.522;2022-09-09T10:14:03;7.40;;;1.17;;
58362;SDS011;54977;51.510;7.522;2022-09-09T10:19:15;7.22;;;1.00;;
58362;SDS011;54977;51.510;7.522;2022-09-09T10:30:09;5.30;;;0.85;;
58362;SDS011;54977;51.510;7.522;2022-09-09T10:40:50;5.32;;;0.88;;
58362;SDS011;54977;51.510;7.522;2022-09-09T10:46:02;4.40;;;0.90;;
58362;SDS011;54977;51.510;7.522;2022-09-09T10:51:11;4.88;;;0.85;;
58362;SDS011;54977;51.510;7.522;2022-09-09T10:56:23;3.17;;;0.80;;
58362;SDS011;54977;51.510;7.522;2022-09-09T11:01:27;4.18;;;0.70;;
58362;SDS011;54977;51.510;7.522;2022-09-09T11:06:36;4.50;;;0.60;;
58362;SDS011;54977;51.510;7.522;2022-09-09T11:11:41;4.00;;;0.90;;
58362;SDS011;54977;51.510;7.522;2022-09-09T11:16:48;6.03;;;0.95;;
58362;SDS011;54977;51.510;7.522;2022-09-09T11:21:55;4.13;;;0.90;;
58362;SDS011;54977;51.510;7.522;2022-09-09T11:27:00;3.78;;;0.82;;
58362;SDS011;54977;51.510;7.522;2022-09-09T11:32:10;3.22;;;0.60;;
58362;SDS011;54977;51.510;7.522;2022-09-09T11:37:33;5.20;;;0.70;;
58362;SDS011;54977;51.510;7.522;2022-09-09T11:43:03;4.65;;;0.70;;
58362;SDS011;54977;51.510;7.522;2022-09-09T11:48:21;3.88;;;0.65;;
58362;SDS011;54977;51.510;7.522;2022-09-09T11:53:27;5.40;;;0.77;;
58362;SDS011;54977;51.510;7.522;2022-09-09T11:58:29;1.90;;;0.55;;
58362;SDS011;54977;51.510;7.522;2022-09-09T12:03:39;3.22;;;0.52;;
58362;SDS011;54977;51.510;7.522;2022-09-09T12:08:48;3.05;;;0.60;;
58362;SDS011;54977;51.510;7.522;2022-09-09T12:13:55;4.60;;;0.50;;
58362;SDS011;54977;51.510;7.522;2022-09-09T12:19:05;1.67;;;0.35;;
58362;SDS011;54977;51.510;7.522;2022-09-09T12:24:18;3.08;;;0.43;;
58362;SDS011;54977;51.510;7.522;2022-09-09T12:29:26;3.70;;;0.55;;
58362;SDS011;54977;51.510;7.522;2022-09-09T12:34:36;3.75;;;0.50;;
58362;SDS011;54977;51.510;7.522;2022-09-09T12:39:43;6.07;;;1.10;;
58362;SDS011;54977;51.510;7.522;2022-09-09T12:44:55;4.75;;;0.73;;
58362;SDS011;54977;51.510;7.522;2022-09-09T12:49:58;4.07;;;0.75;;
58362;SDS011;54977;51.510;7.522;2022-09-09T12:55:02;3.38;;;0.80;;
58362;SDS011;54977;51.510;7.522;2022-09-09T13:00:07;3.15;;;0.70;;
58362;SDS011;54977;51.510;7.522;2022-09-09T13:05:16;5.05;;;0.95;;
58362;SDS011;54977;51.510;7.522;2022-09-09T13:10:23;4.60;;;0.80;;
58362;SDS011;54977;51.510;7.522;2022-09-09T13:15:29;2.67;;;0.85;;
58362;SDS011;54977;51.510;7.522;2022-09-09T13:20:31;4.30;;;0.77;;
58362;SDS011;54977;51.510;7.522;2022-09-09T13:25:34;5.10;;;1.02;;
58362;SDS011;54977;51.510;7.522;2022-09-09T13:30:36;5.13;;;1.05;;
58362;SDS011;54977;51.510;7.522;2022-09-09T13:35:45;5.90;;;0.73;;
58362;SDS011;54977;51.510;7.522;2022-09-09T13:40:55;3.15;;;0.70;;
58362;SDS011;54977;51.510;7.522;2022-09-09T13:46:02;3.55;;;0.70;;
58362;SDS011;54977;51.510;7.522;2022-09-09T13:56:28;3.17;;;0.73;;
58362;SDS011;54977;51.510;7.522;2022-09-09T14:01:30;4.00;;;0.80;;
58362;SDS011;54977;51.510;7.522;2022-09-09T14:06:33;4.75;;;0.60;;
58362;SDS011;54977;51.510;7.522;2022-09-09T14:11:38;3.63;;;0.80;;
58362;SDS011;54977;51.510;7.522;2022-09-09T14:16:40;3.85;;;0.70;;
58362;SDS011;54977;51.510;7.522;2022-09-09T14:21:42;4.50;;;0.70;;
58362;SDS011;54977;51.510;7.522;2022-09-09T14:26:45;3.03;;;0.82;;
58362;SDS011;54977;51.510;7.522;2022-09-09T14:31:47;5.57;;;1.00;;
58362;SDS011;54977;51.510;7.522;2022-09-09T14:36:49;3.38;;;0.93;;
58362;SDS011;54977;51.510;7.522;2022-09-09T14:41:52;4.70;;;0.80;;
58362;SDS011;54977;51.510;7.522;2022-09-09T14:46:54;3.83;;;0.75;;
58362;SDS011;54977;51.510;7.522;2022-09-09T14:51:56;5.32;;;0.63;;
58362;SDS011;54977;51.510;7.522;2022-09-09T14:56:59;3.50;;;0.77;;
58362;SDS011;54977;51.510;7.522;2022-09-09T15:02:02;3.97;;;0.85;;
58362;SDS011;54977;51.510;7.522;2022-09-09T15:07:04;2.22;;;0.63;;
58362;SDS011;54977;51.510;7.522;2022-09-09T15:12:07;3.25;;;0.68;;
58362;SDS011;54977;51.510;7.522;2022-09-09T15:17:09;5.10;;;1.00;;
58362;SDS011;54977;51.510;7.522;2022-09-09T15:22:11;2.78;;;0.60;;
58362;SDS011;54977;51.510;7.522;2022-09-09T15:27:15;5.75;;;1.05;;
58362;SDS011;54977;51.510;7.522;2022-09-09T15:32:18;5.72;;;0.90;;
58362;SDS011;54977;51.510;7.522;2022-09-09T15:37:19;3.13;;;0.82;;
58362;SDS011;54977;51.510;7.522;2022-09-09T15:42:23;2.72;;;0.60;;
58362;SDS011;54977;51.510;7.522;2022-09-09T15:47:25;3.05;;;0.77;;
58362;SDS011;54977;51.510;7.522;2022-09-09T15:52:27;6.32;;;1.50;;
58362;SDS011;54977;51.510;7.522;2022-09-09T15:57:30;2.70;;;0.90;;
58362;SDS011;54977;51.510;7.522;2022-09-09T16:02:33;3.72;;;1.10;;
58362;SDS011;54977;51.510;7.522;2022-09-09T16:07:34;2.95;;;0.73;;
58362;SDS011;54977;51.510;7.522;2022-09-09T16:12:38;2.85;;;0.60;;
58362;SDS011;54977;51.510;7.522;2022-09-09T16:17:40;5.32;;;0.88;;
58362;SDS011;54977;51.510;7.522;2022-09-09T16:22:42;3.78;;;1.00;;
58362;SDS011;54977;51.510;7.522;2022-09-09T16:27:45;3.13;;;1.10;;
58362;SDS011;54977;51.510;7.522;2022-09-09T16:32:47;4.07;;;1.20;;
58362;SDS011;54977;51.510;7.522;2022-09-09T16:37:49;3.25;;;1.20;;
58362;SDS011;54977;51.510;7.522;2022-09-09T16:42:52;4.20;;;1.13;;
58362;SDS011;54977;51.510;7.522;2022-09-09T16:47:54;6.10;;;1.77;;
58362;SDS011;54977;51.510;7.522;2022-09-09T16:52:56;8.80;;;2.00;;
58362;SDS011;54977;51.510;7.522;2022-09-09T16:57:59;3.55;;;1.40;;
58362;SDS011;54977;51.510;7.522;2022-09-09T17:03:01;5.53;;;1.83;;
58362;SDS011;54977;51.510;7.522;2022-09-09T17:08:03;4.78;;;1.88;;
58362;SDS011;54977;51.510;7.522;2022-09-09T17:13:06;4.47;;;1.30;;
58362;SDS011;54977;51.510;7.522;2022-09-09T17:18:09;3.70;;;1.33;;
58362;SDS011;54977;51.510;7.522;2022-09-09T17:23:11;5.38;;;1.42;;
58362;SDS011;54977;51.510;7.522;2022-09-09T17:28:17;5.75;;;1.60;;
58362;SDS011;54977;51.510;7.522;2022-09-09T17:33:24;5.22;;;1.63;;
58362;SDS011;54977;51.510;7.522;2022-09-09T17:38:27;5.68;;;2.30;;
58362;SDS011;54977;51.510;7.522;2022-09-09T17:43:31;8.05;;;2.40;;
58362;SDS011;54977;51.510;7.522;2022-09-09T17:48:33;6.13;;;2.58;;
58362;SDS011;54977;51.510;7.522;2022-09-09T17:53:36;8.90;;;2.75;;
58362;SDS011;54977;51.510;7.522;2022-09-09T17:58:41;6.32;;;2.35;;
58362;SDS011;54977;51.510;7.522;2022-09-09T18:03:44;6.15;;;2.15;;
58362;SDS011;54977;51.510;7.522;2022-09-09T18:08:48;8.10;;;2.50;;
58362;SDS011;54977;51.510;7.522;2022-09-09T18:13:54;7.60;;;2.85;;
58362;SDS011;54977;51.510;7.522;2022-09-09T18:18:57;8.07;;;2.28;;
58362;SDS011;54977;51.510;7.522;2022-09-09T18:24:00;8.93;;;2.60;;
58362;SDS011;54977;51.510;7.522;2022-09-09T18:29:05;7.68;;;2.67;;
58362;SDS011;54977;51.510;7.522;2022-09-09T18:34:09;10.20;;;2.90;;
58362;SDS011;54977;51.510;7.522;2022-09-09T18:39:13;6.82;;;2.83;;
58362;SDS011;54977;51.510;7.522;2022-09-09T18:44:19;6.93;;;2.13;;
58362;SDS011;54977;51.510;7.522;2022-09-09T18:49:22;9.57;;;2.97;;
58362;SDS011;54977;51.510;7.522;2022-09-09T18:54:26;5.32;;;2.15;;
58362;SDS011;54977;51.510;7.522;2022-09-09T18:59:30;5.63;;;2.13;;
58362;SDS011;54977;51.510;7.522;2022-09-09T19:04:32;4.97;;;2.33;;
58362;SDS011;54977;51.510;7.522;2022-09-09T19:09:34;6.18;;;2.25;;
58362;SDS011;54977;51.510;7.522;2022-09-09T19:14:37;5.40;;;2.92;;
58362;SDS011;54977;51.510;7.522;2022-09-09T19:19:39;6.90;;;2.03;;
58362;SDS011;54977;51.510;7.522;2022-09-09T19:24:42;6.88;;;2.10;;
58362;SDS011;54977;51.510;7.522;2022-09-09T19:29:46;5.15;;;1.90;;
58362;SDS011;54977;51.510;7.522;2022-09-09T19:34:48;5.35;;;2.33;;
58362;SDS011;54977;51.510;7.522;2022-09-09T19:39:50;5.65;;;2.42;;
58362;SDS011;54977;51.510;7.522;2022-09-09T19:44:53;5.43;;;2.45;;
58362;SDS011;54977;51.510;7.522;2022-09-09T19:49:55;6.57;;;2.53;;
58362;SDS011;54977;51.510;7.522;2022-09-09T19:54:57;8.00;;;2.65;;
58362;SDS011;54977;51.510;7.522;2022-09-09T20:00:02;4.55;;;2.50;;
58362;SDS011;54977;51.510;7.522;2022-09-09T20:05:05;7.72;;;2.78;;
58362;SDS011;54977;51.510;7.522;2022-09-09T20:10:07;4.55;;;2.40;;
58362;SDS011;54977;51.510;7.522;2022-09-09T20:15:11;6.50;;;2.45;;
58362;SDS011;54977;51.510;7.522;2022-09-09T20:20:13;8.00;;;2.83;;
58362;SDS011;54977;51.510;7.522;2022-09-09T20:25:14;7.13;;;2.45;;
58362;SDS011;54977;51.510;7.522;2022-09-09T20:30:18;6.57;;;2.38;;
58362;SDS011;54977;51.510;7.522;2022-09-09T20:35:20;10.45;;;2.58;;
58362;SDS011;54977;51.510;7.522;2022-09-09T20:40:21;5.47;;;2.20;;
58362;SDS011;54977;51.510;7.522;2022-09-09T20:45:25;5.97;;;1.92;;
58362;SDS011;54977;51.510;7.522;2022-09-09T20:50:26;6.00;;;2.30;;
58362;SDS011;54977;51.510;7.522;2022-09-09T20:55:29;5.22;;;1.70;;
58362;SDS011;54977;51.510;7.522;2022-09-09T21:00:34;5.78;;;2.00;;
58362;SDS011;54977;51.510;7.522;2022-09-09T21:05:36;4.25;;;1.85;;
58362;SDS011;54977;51.510;7.522;2022-09-09T21:10:41;8.18;;;2.20;;
58362;SDS011;54977;51.510;7.522;2022-09-09T21:15:46;6.43;;;2.10;;
58362;SDS011;54977;51.510;7.522;2022-09-09T21:20:49;5.22;;;2.17;;
58362;SDS011;54977;51.510;7.522;2022-09-09T21:25:52;5.13;;;2.10;;
58362;SDS011;54977;51.510;7.522;2022-09-09T21:30:56;5.25;;;2.00;;
58362;SDS011;54977;51.510;7.522;2022-09-09T21:36:00;7.32;;;3.00;;
58362;SDS011;54977;51.510;7.522;2022-09-09T21:41:03;7.53;;;2.95;;
58362;SDS011;54977;51.510;7.522;2022-09-09T21:46:09;7.82;;;3.22;;
58362;SDS011;54977;51.510;7.522;2022-09-09T21:51:12;5.00;;;3.13;;
58362;SDS011;54977;51.510;7.522;2022-09-09T21:56:16;8.65;;;3.45;;
58362;SDS011;54977;51.510;7.522;2022-09-09T22:01:20;7.35;;;3.70;;
58362;SDS011;54977;51.510;7.522;2022-09-09T22:06:23;12.05;;;4.85;;
58362;SDS011;54977;51.510;7.522;2022-09-09T22:11:25;7.35;;;3.20;;
58362;SDS011;54977;51.510;7.522;2022-09-09T22:16:30;7.78;;;3.60;;
58362;SDS011;54977;51.510;7.522;2022-09-09T22:21:32;9.32;;;3.75;;
58362;SDS011;54977;51.510;7.522;2022-09-09T22:26:35;9.55;;;3.72;;
58362;SDS011;54977;51.510;7.522;2022-09-09T22:31:39;7.85;;;3.50;;
58362;SDS011;54977;51.510;7.522;2022-09-09T22:36:42;6.15;;;3.38;;
58362;SDS011;54977;51.510;7.522;2022-09-09T22:41:45;6.53;;;3.70;;
58362;SDS011;54977;51.510;7.522;2022-09-09T22:46:48;11.77;;;3.90;;
58362;SDS011;54977;51.510;7.522;2022-09-09T22:51:50;8.23;;;4.07;;
58362;SDS011;54977;51.510;7.522;2022-09-09T22:56:52;6.88;;;3.80;;
58362;SDS011;54977;51.510;7.522;2022-09-09T23:01:55;6.97;;;3.90;;
58362;SDS011;54977;51.510;7.522;2022-09-09T23:06:57;7.30;;;4.13;;
58362;SDS011;54977;51.510;7.522;2022-09-09T23:11:59;7.68;;;3.58;;
58362;SDS011;54977;51.510;7.522;2022-09-09T23:17:04;7.45;;;3.63;;
58362;SDS011;54977;51.510;7.522;2022-09-09T23:22:07;8.90;;;3.80;;
58362;SDS011;54977;51.510;7.522;2022-09-09T23:27:10;9.35;;;3.45;;
58362;SDS011;54977;51.510;7.522;2022-09-09T23:32:13;6.90;;;3.40;;
58362;SDS011;54977;51.510;7.522;2022-09-09T23:37:15;7.95;;;3.63;;
58362;SDS011;54977;51.510;7.522;2022-09-09T23:42:18;13.55;;;4.35;;
58362;SDS011;54977;51.510;7.522;2022-09-09T23:47:21;10.80;;;3.30;;
58362;SDS011;54977;51.510;7.522;2022-09-09T23:52:24;11.18;;;3.95;;
58362;SDS011;54977;51.510;7.522;2022-09-09T23:57:25;9.25;;;3.72;;
